ADDS METAR Data INFO
IDs: Format: Raw Decoded Include TAF

Data at: 1153 UTC 21 Jun 2018

KEMK 211135Z AUTO 14017KT 9SM FEW018 SCT025 28/24 A2990 RMK A01
KEMK 211115Z AUTO 14019KT 10SM BKN018 BKN024 28/24 A2989 RMK A01
KEMK 211055Z AUTO 14019KT 10SM 28/24 A2988 RMK A01
KEMK 211035Z AUTO 14018KT 10SM 28/24 A2987 RMK A01
KEMK 211015Z AUTO 13020KT 10SM 28/24 A2987 RMK A01
KEMK 210955Z AUTO 13020KT 10SM 28/24 A2986 RMK A01
KEMK 210935Z AUTO 13017KT 10SM 28/25 A2986 RMK A01
KEMK 210915Z AUTO 13020KT 9SM 28/25 A2986 RMK A01
KEMK 210855Z AUTO 13016KT 9SM 28/25 A2986 RMK A01
KEMK 210835Z AUTO 13019KT 10SM 28/25 A2986 RMK A01
KEMK 210815Z AUTO 13017KT 8SM 28/25 A2987 RMK A01
KEMK 210755Z AUTO 13018KT 9SM 28/25 A2987 RMK A01
KEMK 210735Z AUTO 13017KT 8SM 28/25 A2987 RMK A01
KEMK 210715Z AUTO 13018KT 9SM 28/25 A2987 RMK A01
KEMK 210655Z AUTO 13016KT 9SM FEW018 OVC027 28/25 A2988 RMK A01
KEMK 210635Z AUTO 13016KT 9SM OVC028 28/25 A2988 RMK A01
KEMK 210615Z AUTO 13016KT 8SM OVC028 28/25 A2989 RMK A01
KEMK 210555Z AUTO 13016KT 9SM OVC029 28/25 A2989 RMK A01
KEMK 210535Z AUTO 14016KT 9SM FEW023 OVC029 28/25 A2989 RMK A01
KEMK 210515Z AUTO 13019KT 8SM BKN021 OVC028 28/25 A2989 RMK A01
KEMK 210455Z AUTO 13017KT 8SM FEW019 BKN027 BKN039 28/25 A2989 RMK A01
KEMK 210435Z AUTO 14017KT 8SM OVC029 28/25 A2989 RMK A01
KEMK 210415Z AUTO 14017KT 8SM OVC028 28/25 A2989 RMK A01
KEMK 210355Z AUTO 14020KT 8SM FEW016 SCT027 BKN050 28/25 A2988 RMK A01
KEMK 210335Z AUTO 14020KT 8SM FEW015 BKN026 BKN049 28/25 A2987 RMK A01
KEMK 210315Z AUTO 14019KT 9SM OVC026 28/25 A2987 RMK A01
KEMK 210255Z AUTO 14019KT 8SM FEW015 OVC027 28/25 A2987 RMK A01
KEMK 210235Z AUTO 14018KT 8SM 28/25 A2987 RMK A01
KEMK 210215Z AUTO 14018KT 8SM 28/25 A2986 RMK A01
KEMK 210155Z AUTO 14019KT 8SM 28/25 A2986 RMK A01
KEMK 210135Z AUTO 15020KT 7SM SCT020 BKN028 28/25 A2986 RMK A01
KEMK 210115Z AUTO 15018KT 6SM HZ FEW017 BKN022 BKN060 28/26 A2986 RMK A01
KEMK 210055Z AUTO 15021KT 5SM BR SCT016 BKN021 OVC075 28/26 A2985 RMK A01
KEMK 210035Z AUTO 17014KT 6SM BR SCT015 BKN026 BKN075 28/26 A2984 RMK A01
KEMK 210015Z AUTO 17018KT 6SM BR CLR 28/26 A2984 RMK A01
KEMK 202355Z AUTO 16020G25KT 6SM BR CLR 28/26 A2984 RMK A01
KEMK 202325Z AUTO 15021G29KT 2SM BR FEW004 SCT026 BKN042 28/25 A2983 RMK A01 VIS 3/4V5
KEMK 202315Z AUTO 14024G32KT 1/4SM HZ BKN004 BKN020 OVC042 27/25 A2983 RMK A01
KEMK 202255Z AUTO 14021G28KT 3SM HZ FEW022 SCT029 BKN034 28/26 A2982 RMK A01
KEMK 202235Z AUTO 14023KT 3SM HZ SCT033 29/26 A2983 RMK A01
KEMK 202215Z AUTO 14024KT 3SM HZ CLR 29/26 A2982 RMK A01
KEMK 202155Z AUTO 13023KT 3SM HZ FEW015 FEW020 FEW025 29/26 A2982 RMK A01
KEMK 202135Z AUTO 13023KT 2 1/2SM HZ FEW016 FEW020 SCT065 29/26 A2983 RMK A01
KEMK 202115Z AUTO 14025KT 3SM HZ FEW014 SCT019 SCT065 29/26 A2984 RMK A01
KEMK 202055Z AUTO 14025KT 3SM HZ SCT016 SCT021 SCT060 29/26 A2984 RMK A01
KEMK 202035Z AUTO 14023KT 3SM HZ FEW015 FEW065 29/26 A2984 RMK A01
KEMK 202015Z AUTO 13023KT 3SM HZ FEW017 29/26 A2985 RMK A01
KEMK 201955Z AUTO 13026KT 3SM HZ FEW017 29/26 A2986 RMK A01
KEMK 201935Z AUTO 13027KT 3SM HZ FEW015 FEW020 29/26 A2985 RMK A01
KEMK 201915Z AUTO 13024KT 3SM HZ FEW019 SCT023 SCT029 29/26 A2985 RMK A01
KEMK 201855Z AUTO 13025G31KT 3SM HZ FEW019 SCT023 SCT037 29/26 A2985 RMK A01
KEMK 201835Z AUTO 13025KT 4SM HZ FEW018 FEW034 FEW042 29/26 A2986 RMK A01
KEMK 201815Z AUTO 13023G31KT 4SM HZ FEW017 FEW034 FEW042 29/26 A2986 RMK A01
KEMK 201745Z AUTO 13024KT 4SM HZ FEW016 SCT021 SCT025 29/26 A2987 RMK A01
KEMK 201735Z AUTO 13025KT 4SM HZ SCT016 SCT020 SCT025 29/26 A2987 RMK A01
KEMK 201715Z AUTO 13025KT 4SM HZ FEW015 FEW021 SCT032 29/26 A2987 RMK A01
KEMK 201655Z AUTO 13025KT 4SM HZ FEW015 FEW032 29/26 A2987 RMK A01
KEMK 201635Z AUTO 13021G28KT 4SM HZ BKN015 28/25 A2987 RMK A01
KEMK 201615Z AUTO 13022KT 4SM HZ SCT016 28/25 A2987 RMK A01
KEMK 201555Z AUTO 13023KT 5SM HZ SCT016 29/25 A2987 RMK A01
KEMK 201535Z AUTO 13022KT 5SM HZ FEW017 29/25 A2987 RMK A01
KEMK 201515Z AUTO 13022KT 5SM HZ FEW016 29/25 A2987 RMK A01
KEMK 201455Z AUTO 13022KT 5SM HZ FEW018 29/25 A2987 RMK A01
KEMK 201435Z AUTO 13020KT 5SM HZ CLR 29/25 A2987 RMK A01
KEMK 201415Z AUTO 13023KT 5SM HZ CLR 28/25 A2987 RMK A01
KEMK 201355Z AUTO 13022KT 5SM HZ CLR 29/25 A2987 RMK A01
KEMK 201335Z AUTO 13024KT 5SM HZ CLR 28/25 A2987 RMK A01
KEMK 201315Z AUTO 13022KT 6SM HZ CLR 28/25 A2986 RMK A01
KEMK 201255Z AUTO 13024KT 6SM HZ FEW021 28/24 A2986 RMK A01
KEMK 201230Z AUTO 13025KT 6SM HZ FEW020 28/24 A2986 RMK A01
KEMK 201215Z AUTO 13022KT 6SM HZ FEW021 28/24 A2985 RMK A01
KEMK 201155Z AUTO 13025KT 6SM HZ FEW020 28/24 A2985 RMK A01
KEMK 201135Z AUTO 13024KT 6SM HZ FEW019 FEW037 28/24 A2984 RMK A01
KEMK 201115Z AUTO 13023KT 8SM 28/24 A2985 RMK A01
KEMK 201055Z AUTO 13024KT 28/24 A2985 RMK A01
KEMK 201030Z AUTO 14024KT 8SM 28/24 A2985 RMK A01
KEMK 201015Z AUTO 14023KT 8SM 28/24 A2985 RMK A01
KEMK 200955Z AUTO 14025KT 8SM 28/24 A2985 RMK A01
KEMK 200935Z AUTO 13022KT 7SM 28/24 A2984 RMK A01
KEMK 200915Z AUTO 14026KT 10SM BKN026 BKN034 28/24 A2984 RMK A01
KEMK 200855Z AUTO 14027KT 9SM 28/24 A2985 RMK A01
KEMK 200835Z AUTO 13027KT 9SM SCT019 BKN027 28/24 A2984 RMK A01
KEMK 200815Z AUTO 13023G29KT 9SM FEW018 BKN028 BKN036 28/24 A2985 RMK A01
KEMK 200755Z AUTO 13026KT 9SM FEW018 FEW025 BKN029 28/24 A2985 RMK A01
KEMK 200735Z AUTO 14026KT 9SM SCT020 SCT027 SCT075 28/24 A2985 RMK A01
KEMK 200715Z AUTO 13022KT 10SM 28/25 A2986 RMK A01
KEMK 200655Z AUTO 13021KT 10SM 28/25 A2986 RMK A01
KEMK 200635Z AUTO 13022KT 10SM 28/25 A2987 RMK A01
KEMK 200615Z AUTO 13021KT 10SM BKN017 BKN022 BKN075 27/25 A2987 RMK A01
KEMK 200555Z AUTO 13021KT 10SM BKN016 BKN025 BKN070 27/25 A2988 RMK A01
KEMK 200535Z AUTO 13023KT 10SM FEW017 SCT024 BKN065 27/24 A2988 RMK A01
KEMK 200515Z AUTO 13021KT 10SM FEW026 FEW031 SCT060 27/24 A2988 RMK A01
KEMK 200455Z AUTO 13021KT 10SM BKN060 28/24 A2989 RMK A01
KEMK 200435Z AUTO 13021KT 10SM OVC055 28/24 A2989 RMK A01
KEMK 200415Z AUTO 14019KT 10SM 28/24 A2989 RMK A01
KEMK 200355Z AUTO 14020KT 28/24 A2990 RMK A01
KEMK 200335Z AUTO 13022KT 10SM BKN055 OVC065 27/24 A2990 RMK A01
KEMK 200315Z AUTO 14022KT 10SM BKN060 27/24 A2990 RMK A01
KEMK 200255Z AUTO 14019KT 10SM FEW060 SCT070 SCT080 27/24 A2990 RMK A01
KEMK 200235Z AUTO 14020KT 10SM FEW060 BKN075 OVC085 26/23 A2990 RMK A01
KEMK 200215Z AUTO 14017KT 10SM OVC080 26/23 A2989 RMK A01
KEMK 200155Z AUTO 14017KT 10SM FEW060 SCT080 BKN095 26/23 A2988 RMK A01
KEMK 200135Z AUTO 14017G22KT 10SM FEW016 FEW032 BKN055 25/23 A2986 RMK A01
KEMK 200115Z AUTO 15024KT 9SM SCT016 SCT043 BKN050 26/23 A2987 RMK A01
KEMK 200055Z AUTO 17024KT 2 1/2SM BR FEW030 SCT043 BKN065 25/23 A2986 RMK A01
KEMK 200035Z AUTO 16026G32KT 8SM FEW015 FEW029 FEW041 25/23 A2987 RMK A01
KEMK 200015Z AUTO 16034G40KT 3/4SM HZ BKN004 BKN017 OVC027 25/23 A2988 RMK A01 VIS 1/4V3
KEMK 192355Z AUTO 13029G40KT 1SM HZ FEW004 BKN018 OVC035 27/25 A2987 RMK A01